Time;durP1;ratioP1;P1;durP2;ratioP2;P2;SDS_P1;SDS_P2;PMS_P1;PMS_P2;Temp;Humidity;BMP_temperature;BMP_pressure;BME280_temperature;BME280_humidity;BME280_pressure;Samples;Min_cycle;Max_cycle;Signal;HPM_P1;HPM_P2
2023/08/26 00:02:08;;;;;;;8.70;7.60;;;18.20;99.90;;;;;;6116221;23;20139;-74
2023/08/26 00:04:34;;;;;;;9.83;8.03;;;18.10;99.90;;;;;;6114508;23;20198;-74
2023/08/26 00:07:00;;;;;;;10.00;8.93;;;18.10;99.90;;;;;;6116535;23;20380;-75
2023/08/26 00:09:26;;;;;;;13.10;9.40;;;18.10;99.90;;;;;;6141445;23;20423;-74
2023/08/26 00:11:53;;;;;;;13.17;9.80;;;18.00;99.90;;;;;;6117460;23;20374;-75
2023/08/26 00:14:19;;;;;;;13.67;11.63;;;18.00;99.90;;;;;;6117320;23;20390;-75
2023/08/26 00:16:44;;;;;;;12.77;11.47;;;18.00;99.90;;;;;;6117129;23;20376;-74
2023/08/26 00:19:10;;;;;;;11.07;10.00;;;18.00;99.90;;;;;;6117295;23;20187;-72
2023/08/26 00:21:37;;;;;;;11.93;10.73;;;18.00;99.90;;;;;;6116898;23;20537;-76
2023/08/26 00:24:03;;;;;;;12.87;10.30;;;18.10;99.90;;;;;;6117857;23;20150;-74
2023/08/26 00:26:29;;;;;;;12.03;10.17;;;18.20;99.90;;;;;;6114864;23;20455;-74
2023/08/26 00:28:55;;;;;;;11.03;9.93;;;18.20;99.90;;;;;;6089453;23;20367;-72
2023/08/26 00:31:22;;;;;;;12.50;11.30;;;18.30;99.90;;;;;;6089757;23;20183;-74
2023/08/26 00:33:48;;;;;;;15.10;11.30;;;18.30;99.90;;;;;;6142268;23;20422;-71
2023/08/26 00:36:13;;;;;;;11.10;9.73;;;18.40;99.90;;;;;;6115950;23;20371;-75
2023/08/26 00:38:39;;;;;;;9.93;8.87;;;18.40;99.90;;;;;;6089662;23;20425;-74
2023/08/26 00:41:05;;;;;;;13.40;10.97;;;18.40;99.90;;;;;;6139277;23;20480;-73
2023/08/26 00:43:31;;;;;;;10.73;9.63;;;18.40;99.90;;;;;;6111623;23;20498;-73
2023/08/26 00:45:59;;;;;;;10.80;9.80;;;18.40;99.90;;;;;;6112206;23;20375;-73
2023/08/26 00:48:24;;;;;;;10.80;9.43;;;18.40;99.90;;;;;;6111100;23;20690;-72
2023/08/26 00:50:53;;;;;;;9.97;8.93;;;18.40;99.90;;;;;;6112604;23;20392;-73
2023/08/26 00:53:20;;;;;;;9.73;8.70;;;18.40;99.90;;;;;;6140134;23;20143;-73
2023/08/26 00:55:46;;;;;;;8.67;7.80;;;18.40;99.90;;;;;;6113118;23;20403;-74
2023/08/26 00:58:14;;;;;;;10.87;9.23;;;18.40;99.90;;;;;;6113548;23;20375;-72
2023/08/26 01:00:41;;;;;;;11.13;9.27;;;18.30;99.90;;;;;;6111875;23;20486;-74
2023/08/26 01:03:08;;;;;;;10.00;7.60;;;18.30;99.90;;;;;;6110887;23;20383;-72
2023/08/26 01:05:33;;;;;;;12.03;7.70;;;18.30;99.90;;;;;;6111699;23;20364;-74
2023/08/26 01:08:02;;;;;;;9.60;8.60;;;18.30;99.90;;;;;;6136987;23;20155;-73
2023/08/26 01:10:44;;;;;;;7.70;6.90;;;18.20;99.90;;;;;;6137889;23;20394;-73
2023/08/26 01:13:14;;;;;;;7.43;6.63;;;18.20;99.90;;;;;;6087820;23;20789;-72
2023/08/26 01:15:48;;;;;;;10.00;6.50;;;18.20;99.90;;;;;;6137696;23;20364;-72
2023/08/26 01:18:15;;;;;;;7.93;6.67;;;18.10;99.90;;;;;;6138707;23;20427;-72
2023/08/26 01:20:42;;;;;;;7.67;6.97;;;18.10;99.90;;;;;;6112155;23;20415;-76
2023/08/26 01:23:17;;;;;;;7.40;5.90;;;18.10;99.90;;;;;;6137996;23;20356;-70
2023/08/26 01:25:43;;;;;;;7.10;6.40;;;18.10;99.90;;;;;;6137586;23;20387;-72
2023/08/26 01:28:10;;;;;;;7.63;6.17;;;18.10;99.90;;;;;;6112173;23;20373;-74
2023/08/26 01:30:36;;;;;;;8.13;6.33;;;18.10;99.90;;;;;;6111950;23;20387;-73
2023/08/26 01:33:21;;;;;;;9.50;6.90;;;18.00;99.90;;;;;;6137608;23;20382;-73
2023/08/26 01:35:49;;;;;;;8.60;7.03;;;17.90;99.90;;;;;;6111835;23;20505;-72
2023/08/26 01:38:16;;;;;;;10.27;8.17;;;17.80;99.90;;;;;;6086360;23;20390;-73
2023/08/26 01:40:49;;;;;;;9.00;6.67;;;17.70;99.90;;;;;;6111279;23;20510;-71
2023/08/26 01:43:16;;;;;;;8.60;7.30;;;17.60;99.90;;;;;;6111342;23;20376;-74
2023/08/26 01:45:41;;;;;;;8.83;6.87;;;17.40;99.90;;;;;;6139916;23;20779;-71
2023/08/26 01:48:07;;;;;;;7.77;5.87;;;17.30;99.90;;;;;;6111123;23;20388;-71
2023/08/26 01:50:32;;;;;;;8.83;6.53;;;17.20;99.90;;;;;;6136838;23;20190;-71
2023/08/26 01:52:58;;;;;;;7.73;6.33;;;17.00;99.90;;;;;;6112245;23;20506;-70
2023/08/26 01:55:25;;;;;;;10.83;6.13;;;16.90;99.90;;;;;;6110130;23;20144;-72
2023/08/26 01:57:50;;;;;;;7.60;6.03;;;16.80;99.90;;;;;;6109109;23;20387;-72
2023/08/26 02:00:16;;;;;;;8.00;5.40;;;16.70;99.90;;;;;;6109990;23;20195;-72
2023/08/26 02:02:42;;;;;;;10.67;5.70;;;16.60;99.90;;;;;;6136438;23;20136;-72
2023/08/26 02:05:08;;;;;;;7.60;4.30;;;16.50;99.90;;;;;;6138009;23;20139;-73
2023/08/26 02:07:34;;;;;;;6.80;4.47;;;16.40;99.90;;;;;;6137252;23;20407;-72
2023/08/26 02:09:59;;;;;;;14.17;4.50;;;16.30;99.90;;;;;;6136683;23;20205;-73
2023/08/26 02:12:25;;;;;;;6.37;4.40;;;16.20;99.90;;;;;;6111613;23;20198;-72
2023/08/26 02:14:50;;;;;;;6.70;4.17;;;16.10;99.90;;;;;;6111077;23;20137;-72
2023/08/26 02:17:16;;;;;;;7.97;5.00;;;16.00;99.90;;;;;;6086241;23;20149;-72
2023/08/26 02:19:43;;;;;;;6.60;4.00;;;16.00;99.90;;;;;;6110705;23;20577;-71
2023/08/26 02:22:09;;;;;;;4.10;3.20;;;15.90;99.90;;;;;;6112216;23;20416;-72
2023/08/26 02:24:36;;;;;;;5.57;3.50;;;15.80;99.90;;;;;;6110666;23;20153;-72
2023/08/26 02:27:02;;;;;;;6.80;4.20;;;15.70;99.90;;;;;;6115160;23;20383;-73
2023/08/26 02:29:30;;;;;;;10.83;4.10;;;15.70;99.90;;;;;;6136338;23;20150;-73
2023/08/26 02:31:56;;;;;;;8.00;4.63;;;15.60;99.90;;;;;;6110890;23;20368;-72
2023/08/26 02:34:21;;;;;;;5.20;3.90;;;15.60;99.90;;;;;;6110941;23;20377;-71
2023/08/26 02:36:47;;;;;;;6.60;4.03;;;15.50;99.90;;;;;;6137403;23;20584;-72
2023/08/26 02:39:14;;;;;;;7.97;4.00;;;15.50;99.90;;;;;;6110169;23;20178;-75
2023/08/26 02:41:39;;;;;;;7.20;4.00;;;15.40;99.90;;;;;;6111890;23;20172;-73
2023/08/26 02:44:05;;;;;;;7.70;3.90;;;15.40;99.90;;;;;;6110589;23;20388;-72
2023/08/26 02:46:30;;;;;;;5.07;3.63;;;15.30;99.90;;;;;;6111372;23;20172;-72
2023/08/26 02:48:57;;;;;;;3.13;2.70;;;15.30;99.90;;;;;;6135392;23;20132;-71
2023/08/26 02:51:22;;;;;;;4.23;3.57;;;15.30;99.90;;;;;;6109947;23;20400;-72
2023/08/26 02:53:48;;;;;;;6.03;3.03;;;15.20;99.90;;;;;;6136164;23;20151;-72
2023/08/26 02:56:13;;;;;;;6.83;2.50;;;15.20;99.90;;;;;;6135193;23;20214;-72
2023/08/26 02:58:40;;;;;;;8.33;3.17;;;15.10;99.90;;;;;;6087012;23;20552;-73
2023/08/26 03:01:06;;;;;;;5.63;2.97;;;15.10;99.90;;;;;;6110976;23;20427;-74
2023/08/26 03:03:32;;;;;;;4.23;2.07;;;15.00;99.90;;;;;;6110670;23;20394;-72
2023/08/26 03:05:58;;;;;;;4.30;2.40;;;15.00;99.90;;;;;;6109594;23;20156;-72
2023/08/26 03:08:25;;;;;;;4.33;2.87;;;15.00;99.90;;;;;;6086261;23;20194;-72
2023/08/26 03:11:01;;;;;;;3.60;2.33;;;14.90;99.90;;;;;;6135536;23;20396;-71
2023/08/26 03:13:27;;;;;;;4.33;2.30;;;14.80;99.90;;;;;;6134597;23;20366;-72
2023/08/26 03:15:52;;;;;;;9.10;2.80;;;14.80;99.90;;;;;;6135676;23;20645;-71
2023/08/26 03:18:18;;;;;;;4.00;2.60;;;14.70;99.90;;;;;;6108523;23;20148;-72
2023/08/26 03:20:44;;;;;;;3.70;2.13;;;14.70;99.90;;;;;;6108320;23;20199;-72
2023/08/26 03:23:10;;;;;;;3.80;2.57;;;14.70;99.90;;;;;;6108178;23;20224;-71
2023/08/26 03:25:40;;;;;;;4.93;2.77;;;14.70;99.90;;;;;;6128837;23;20367;-72
2023/08/26 03:28:08;;;;;;;3.63;2.40;;;14.60;99.90;;;;;;6128875;23;20137;-72
2023/08/26 03:30:35;;;;;;;4.57;1.80;;;14.60;99.90;;;;;;6103007;23;20440;-72
2023/08/26 03:33:03;;;;;;;4.50;2.53;;;14.50;99.90;;;;;;6102801;23;20399;-71
2023/08/26 03:35:30;;;;;;;7.90;3.53;;;14.50;99.90;;;;;;6105094;23;20375;-71
2023/08/26 03:37:55;;;;;;;3.97;2.80;;;14.50;99.90;;;;;;6107028;23;20407;-71
2023/08/26 03:40:22;;;;;;;4.60;2.77;;;14.40;99.90;;;;;;6104569;23;20427;-71
2023/08/26 03:42:50;;;;;;;5.70;3.53;;;14.40;99.90;;;;;;6103783;23;20161;-71
2023/08/26 03:45:16;;;;;;;4.47;2.90;;;14.40;99.90;;;;;;6104403;23;20439;-71
2023/08/26 03:47:42;;;;;;;5.23;2.70;;;14.30;99.90;;;;;;6131135;23;20368;-72
2023/08/26 03:50:08;;;;;;;3.63;2.47;;;14.30;99.90;;;;;;6105331;23;20791;-72
2023/08/26 03:52:34;;;;;;;4.30;2.80;;;14.30;99.90;;;;;;6132569;23;20140;-71
2023/08/26 03:55:00;;;;;;;3.47;2.53;;;14.20;99.90;;;;;;6109572;23;20379;-72
2023/08/26 03:57:25;;;;;;;5.10;2.30;;;14.20;99.90;;;;;;6108606;23;20152;-72
2023/08/26 03:59:51;;;;;;;5.33;2.40;;;14.20;99.90;;;;;;6109647;23;20199;-71
2023/08/26 04:02:16;;;;;;;3.50;2.33;;;14.20;99.90;;;;;;6133544;23;20144;-71
2023/08/26 04:04:43;;;;;;;4.47;2.10;;;14.20;99.90;;;;;;6131160;23;20124;-71
2023/08/26 04:07:08;;;;;;;3.77;2.20;;;14.10;99.90;;;;;;6105047;23;20583;-72
2023/08/26 04:09:35;;;;;;;3.80;2.63;;;14.10;99.90;;;;;;6104709;23;20593;-71
2023/08/26 04:12:01;;;;;;;3.73;2.40;;;14.00;99.90;;;;;;6104650;23;20203;-70
2023/08/26 04:14:27;;;;;;;2.60;2.00;;;13.90;99.90;;;;;;6105165;23;20387;-71
2023/08/26 04:16:52;;;;;;;4.10;1.90;;;13.90;99.90;;;;;;6104585;23;20625;-71
2023/08/26 04:19:18;;;;;;;4.17;2.70;;;13.90;99.90;;;;;;6103693;23;20188;-71
2023/08/26 04:21:44;;;;;;;3.27;2.10;;;13.80;99.90;;;;;;6105532;23;20210;-71
2023/08/26 04:24:09;;;;;;;4.37;1.90;;;13.80;99.90;;;;;;6132857;23;20450;-71
2023/08/26 04:26:35;;;;;;;5.10;2.40;;;13.80;99.90;;;;;;6105009;23;20143;-72
2023/08/26 04:29:01;;;;;;;3.53;2.13;;;13.80;99.90;;;;;;6130279;23;20442;-71
2023/08/26 04:31:26;;;;;;;4.40;1.57;;;13.80;99.90;;;;;;6080813;23;20592;-71
2023/08/26 04:33:52;;;;;;;4.20;2.37;;;13.80;99.90;;;;;;6106837;23;20136;-70
2023/08/26 04:36:18;;;;;;;2.63;1.80;;;13.80;99.90;;;;;;6131528;23;20399;-70
2023/08/26 04:38:45;;;;;;;3.73;1.90;;;13.80;99.90;;;;;;6105076;23;20148;-70
2023/08/26 04:41:10;;;;;;;3.70;1.63;;;13.80;99.90;;;;;;6130247;23;20564;-71
2023/08/26 04:43:36;;;;;;;3.93;2.37;;;13.80;99.90;;;;;;6104023;23;20462;-71
2023/08/26 04:46:02;;;;;;;2.60;1.90;;;13.80;99.90;;;;;;6105326;23;20557;-71
2023/08/26 04:48:28;;;;;;;2.30;1.57;;;13.80;99.90;;;;;;6104665;23;20136;-71
2023/08/26 04:50:55;;;;;;;2.70;1.73;;;13.80;99.90;;;;;;6105437;23;20449;-70
2023/08/26 04:53:20;;;;;;;2.10;1.60;;;13.80;99.90;;;;;;6106636;23;20653;-71
2023/08/26 04:55:50;;;;;;;2.77;1.70;;;13.80;99.90;;;;;;6133636;23;20361;-72
2023/08/26 04:58:16;;;;;;;3.07;1.57;;;13.80;99.90;;;;;;6106551;23;20269;-72
2023/08/26 05:00:41;;;;;;;2.13;1.40;;;13.80;99.90;;;;;;6105860;23;20423;-71
2023/08/26 05:03:09;;;;;;;2.67;1.33;;;13.80;99.90;;;;;;6104499;23;20797;-70
2023/08/26 05:05:35;;;;;;;3.53;1.53;;;13.90;99.90;;;;;;6105319;23;20380;-71
2023/08/26 05:08:00;;;;;;;3.33;1.70;;;13.90;99.90;;;;;;6106029;23;20804;-70
2023/08/26 05:10:26;;;;;;;2.30;1.93;;;13.90;99.90;;;;;;6104677;23;20459;-70
2023/08/26 05:12:52;;;;;;;2.20;1.50;;;14.00;99.90;;;;;;6105144;23;20144;-71
2023/08/26 05:15:18;;;;;;;2.97;1.60;;;14.00;99.90;;;;;;6106442;23;20380;-72
2023/08/26 05:17:43;;;;;;;2.03;1.40;;;14.00;99.90;;;;;;6104693;23;20148;-71
2023/08/26 05:20:09;;;;;;;3.00;1.50;;;14.00;99.90;;;;;;6104529;23;20184;-70
2023/08/26 05:22:35;;;;;;;1.97;1.33;;;14.10;99.90;;;;;;6105832;23;20380;-71
2023/08/26 05:25:01;;;;;;;1.70;1.10;;;14.10;99.90;;;;;;6105344;23;20367;-71
2023/08/26 05:27:27;;;;;;;2.30;1.33;;;14.20;99.90;;;;;;6131602;23;20195;-71
2023/08/26 05:29:54;;;;;;;2.70;1.73;;;14.20;99.90;;;;;;6104412;23;20180;-73
2023/08/26 05:32:22;;;;;;;6.10;1.67;;;14.20;99.90;;;;;;6104253;23;20626;-72
2023/08/26 05:34:47;;;;;;;1.60;1.17;;;14.30;99.90;;;;;;6131370;23;20363;-71
2023/08/26 05:37:13;;;;;;;1.70;1.60;;;14.30;99.90;;;;;;6131698;23;20140;-71
2023/08/26 05:39:38;;;;;;;2.73;1.60;;;14.40;99.90;;;;;;6105022;23;20274;-72
2023/08/26 05:42:05;;;;;;;2.07;1.57;;;14.40;99.90;;;;;;6107264;23;20198;-72
2023/08/26 05:44:31;;;;;;;2.87;1.53;;;14.50;99.90;;;;;;6109805;23;20148;-71
2023/08/26 05:46:57;;;;;;;4.33;2.30;;;14.60;99.90;;;;;;6109460;23;20379;-72
2023/08/26 05:49:22;;;;;;;3.10;2.00;;;14.70;99.90;;;;;;6109611;23;20148;-72
2023/08/26 05:51:48;;;;;;;2.10;1.87;;;14.80;99.90;;;;;;6135835;23;20136;-72
2023/08/26 05:54:14;;;;;;;3.07;1.63;;;14.90;99.90;;;;;;6109766;23;20156;-71
2023/08/26 05:56:40;;;;;;;3.77;1.60;;;15.00;99.90;;;;;;6084916;23;20376;-71
2023/08/26 05:59:05;;;;;;;4.53;1.50;;;15.10;99.90;;;;;;6132812;23;20136;-71
2023/08/26 06:01:31;;;;;;;3.30;1.70;;;15.20;99.90;;;;;;6104180;23;20171;-72
2023/08/26 06:03:58;;;;;;;6.10;2.27;;;15.20;99.90;;;;;;6104722;23;20227;-72
2023/08/26 06:06:24;;;;;;;4.03;1.87;;;15.30;99.90;;;;;;6107261;23;20144;-71
2023/08/26 06:08:50;;;;;;;2.33;1.53;;;15.40;99.90;;;;;;6111197;23;20427;-72
2023/08/26 06:11:16;;;;;;;2.77;1.90;;;15.60;99.90;;;;;;6110610;23;20403;-72
2023/08/26 06:13:43;;;;;;;5.13;2.03;;;15.70;99.90;;;;;;6111591;23;20164;-73
2023/08/26 06:16:11;;;;;;;3.83;1.70;;;15.90;99.90;;;;;;6110979;23;20459;-73
2023/08/26 06:18:37;;;;;;;3.30;2.17;;;15.90;99.90;;;;;;6109764;23;20412;-71
2023/08/26 06:21:04;;;;;;;5.30;1.70;;;16.00;99.90;;;;;;6135811;23;20177;-72
2023/08/26 06:23:29;;;;;;;2.23;1.50;;;15.90;99.90;;;;;;6135472;23;20371;-72
2023/08/26 06:25:56;;;;;;;2.53;1.70;;;15.90;99.90;;;;;;6086963;23;20412;-72
2023/08/26 06:28:24;;;;;;;4.53;1.77;;;15.90;99.90;;;;;;6111754;23;20152;-72
2023/08/26 06:30:50;;;;;;;5.83;1.83;;;16.00;99.90;;;;;;6111090;23;20396;-73
2023/08/26 06:33:17;;;;;;;4.00;1.97;;;15.90;99.90;;;;;;6111672;23;20387;-72
2023/08/26 06:35:49;;;;;;;4.90;2.30;;;16.00;99.90;;;;;;6138999;23;20360;-72
2023/08/26 06:38:15;;;;;;;3.10;1.57;;;16.00;99.90;;;;;;6140870;23;20392;-74
2023/08/26 06:40:42;;;;;;;7.00;2.13;;;16.10;99.90;;;;;;6111629;23;20423;-73
2023/08/26 06:43:08;;;;;;;5.97;1.73;;;16.10;99.90;;;;;;6110556;23;20380;-73
2023/08/26 06:45:35;;;;;;;3.00;1.83;;;16.20;99.90;;;;;;6087518;23;20171;-72
2023/08/26 06:48:04;;;;;;;2.40;1.50;;;16.20;99.90;;;;;;6111554;23;20386;-72
2023/08/26 06:50:29;;;;;;;3.33;2.20;;;16.30;99.90;;;;;;6108822;23;20408;-72
2023/08/26 06:52:55;;;;;;;3.30;1.70;;;16.40;99.90;;;;;;6136065;23;20413;-74
2023/08/26 06:55:21;;;;;;;6.37;2.50;;;16.40;99.90;;;;;;6117005;23;20155;-74
2023/08/26 06:57:46;;;;;;;5.53;2.20;;;16.50;99.90;;;;;;6092305;23;20159;-73
2023/08/26 07:00:13;;;;;;;4.20;1.67;;;16.60;99.90;;;;;;6140337;23;20179;-72
2023/08/26 07:02:38;;;;;;;4.37;2.10;;;16.60;99.90;;;;;;6112959;23;20533;-73
2023/08/26 07:05:04;;;;;;;2.97;1.90;;;16.60;99.90;;;;;;6113395;23;20357;-72
2023/08/26 07:07:30;;;;;;;2.43;1.90;;;16.70;99.20;;;;;;6137273;23;20147;-74
2023/08/26 07:09:56;;;;;;;4.00;1.53;;;16.70;99.30;;;;;;6136505;23;20193;-73
2023/08/26 07:12:21;;;;;;;3.70;1.77;;;16.80;98.60;;;;;;6136078;23;20148;-71
2023/08/26 07:14:47;;;;;;;2.60;1.60;;;16.90;97.80;;;;;;6134700;23;20212;-73
2023/08/26 07:17:17;;;;;;;5.50;2.00;;;16.90;96.60;;;;;;6111442;23;20196;-72
2023/08/26 07:19:42;;;;;;;3.70;2.13;;;17.00;96.20;;;;;;6137276;23;20417;-75
2023/08/26 07:22:08;;;;;;;2.90;1.73;;;17.10;96.00;;;;;;6138881;23;20769;-75
2023/08/26 07:24:34;;;;;;;3.27;1.83;;;17.10;94.90;;;;;;6112440;23;20148;-73
2023/08/26 07:26:59;;;;;;;3.60;1.80;;;17.10;94.70;;;;;;6138251;23;20138;-73
2023/08/26 07:29:25;;;;;;;5.37;1.77;;;17.20;94.10;;;;;;6140399;23;20214;-75
2023/08/26 07:31:51;;;;;;;5.33;1.63;;;17.30;93.20;;;;;;6089977;23;20148;-71
2023/08/26 07:34:16;;;;;;;5.27;2.20;;;17.30;92.30;;;;;;6142025;23;20144;-74
2023/08/26 07:36:42;;;;;;;2.40;1.40;;;17.30;92.20;;;;;;6115564;23;20150;-75
2023/08/26 07:39:08;;;;;;;2.33;1.70;;;17.40;91.60;;;;;;6116806;23;20160;-72
2023/08/26 07:41:35;;;;;;;3.90;1.50;;;17.50;91.60;;;;;;6113142;23;20238;-73
2023/08/26 07:44:00;;;;;;;4.33;1.80;;;17.50;91.70;;;;;;6137761;23;20437;-71
2023/08/26 07:46:27;;;;;;;5.57;1.60;;;17.50;90.80;;;;;;6116811;23;20454;-72
2023/08/26 07:48:52;;;;;;;4.37;1.80;;;17.60;90.50;;;;;;6139759;23;20139;-75
2023/08/26 07:51:18;;;;;;;6.40;2.03;;;17.60;90.30;;;;;;6140485;23;20471;-74
2023/08/26 07:53:44;;;;;;;3.47;1.77;;;17.70;89.60;;;;;;6113947;23;20161;-73
2023/08/26 07:56:10;;;;;;;5.73;1.73;;;17.70;88.50;;;;;;6140184;23;20367;-73
2023/08/26 07:58:35;;;;;;;3.90;1.30;;;17.80;87.50;;;;;;6138677;23;20148;-73
2023/08/26 08:01:01;;;;;;;2.90;1.40;;;17.80;85.70;;;;;;6139008;23;20444;-75
2023/08/26 08:03:27;;;;;;;2.30;1.33;;;17.90;85.70;;;;;;6138620;23;20140;-74
2023/08/26 08:05:53;;;;;;;1.53;1.00;;;17.90;84.90;;;;;;6112856;23;20358;-74
2023/08/26 08:08:18;;;;;;;1.53;1.40;;;18.00;84.70;;;;;;6137880;23;20217;-72
2023/08/26 08:10:44;;;;;;;2.50;1.10;;;18.00;83.70;;;;;;6138398;23;20179;-73
2023/08/26 08:13:09;;;;;;;1.73;1.07;;;18.00;83.60;;;;;;6112831;23;20152;-74
2023/08/26 08:15:35;;;;;;;4.10;1.67;;;18.00;83.10;;;;;;6140077;23;20234;-73
2023/08/26 08:18:02;;;;;;;3.90;1.50;;;18.00;82.20;;;;;;6113931;23;20140;-73
2023/08/26 08:20:30;;;;;;;5.20;1.73;;;18.10;80.90;;;;;;6115239;23;20495;-73
2023/08/26 08:22:56;;;;;;;1.77;1.17;;;18.20;81.50;;;;;;6138753;23;20366;-74
2023/08/26 08:25:21;;;;;;;5.17;1.43;;;18.30;82.20;;;;;;6113581;23;20394;-74
2023/08/26 08:27:47;;;;;;;2.30;1.27;;;18.40;79.50;;;;;;6138315;23;20136;-73
2023/08/26 08:30:13;;;;;;;2.30;1.33;;;18.50;78.30;;;;;;6087327;23;20186;-73
2023/08/26 08:32:38;;;;;;;3.10;1.17;;;18.50;77.70;;;;;;6139713;23;20139;-74
2023/08/26 08:35:04;;;;;;;4.37;1.70;;;18.60;76.70;;;;;;6139031;23;20462;-73
2023/08/26 08:37:30;;;;;;;2.27;1.37;;;18.60;75.30;;;;;;6141288;23;20147;-74
2023/08/26 08:39:56;;;;;;;2.50;1.43;;;18.70;74.60;;;;;;6140904;23;20431;-73
2023/08/26 08:42:22;;;;;;;5.23;2.50;;;18.80;73.60;;;;;;6138998;23;20445;-72
2023/08/26 08:44:48;;;;;;;2.40;1.87;;;18.90;72.50;;;;;;6140287;23;20137;-74
2023/08/26 08:47:15;;;;;;;3.63;1.87;;;18.90;72.40;;;;;;6139572;23;20555;-73
2023/08/26 08:49:43;;;;;;;4.03;1.40;;;19.10;71.40;;;;;;6139065;23;20694;-74
2023/08/26 08:52:09;;;;;;;3.40;1.73;;;19.20;70.30;;;;;;6113371;23;20364;-74
2023/08/26 08:54:35;;;;;;;2.27;1.20;;;19.20;69.30;;;;;;6138931;23;20386;-74
2023/08/26 08:57:03;;;;;;;3.53;1.40;;;19.30;68.90;;;;;;6138144;23;20356;-72
2023/08/26 08:59:35;;;;;;;5.07;1.23;;;19.30;68.40;;;;;;6141380;23;20399;-76
2023/08/26 09:02:01;;;;;;;1.73;1.13;;;19.40;67.90;;;;;;6089528;23;20380;-74
2023/08/26 09:04:28;;;;;;;1.70;0.93;;;19.50;66.80;;;;;;6138545;23;20395;-76
2023/08/26 09:06:54;;;;;;;2.43;1.27;;;19.50;66.60;;;;;;6112532;23;20439;-74
2023/08/26 09:09:20;;;;;;;2.60;1.30;;;19.50;66.10;;;;;;6138202;23;20430;-73
2023/08/26 09:11:47;;;;;;;1.93;1.20;;;19.60;66.30;;;;;;6114742;23;20372;-75
2023/08/26 09:14:13;;;;;;;2.17;1.27;;;19.70;66.70;;;;;;6139949;23;20398;-75
2023/08/26 09:16:40;;;;;;;2.20;1.10;;;19.80;66.30;;;;;;6113538;23;20368;-74
2023/08/26 09:19:11;;;;;;;1.40;1.10;;;19.90;64.70;;;;;;6112932;23;20160;-73
2023/08/26 09:21:44;;;;;;;3.57;1.37;;;19.80;63.90;;;;;;6088805;23;20415;-75
2023/08/26 09:24:13;;;;;;;2.60;1.70;;;19.90;64.20;;;;;;6089154;23;20688;-74
2023/08/26 09:26:40;;;;;;;1.10;0.90;;;20.00;63.60;;;;;;6140324;23;20375;-76
2023/08/26 09:29:17;;;;;;;4.10;1.40;;;20.10;63.70;;;;;;6141347;23;20371;-75
2023/08/26 09:31:50;;;;;;;2.53;1.20;;;20.20;62.90;;;;;;6139960;23;20676;-77
2023/08/26 09:34:28;;;;;;;2.17;1.37;;;20.30;62.80;;;;;;6140469;23;20359;-76
2023/08/26 09:36:54;;;;;;;1.67;1.20;;;20.30;61.50;;;;;;6116985;23;20351;-74
2023/08/26 09:39:23;;;;;;;3.53;1.43;;;20.30;60.80;;;;;;6140987;23;20927;-75
2023/08/26 09:41:49;;;;;;;2.00;1.40;;;20.30;61.00;;;;;;6140178;23;20148;-75
2023/08/26 09:44:17;;;;;;;3.43;1.37;;;20.40;60.30;;;;;;6139983;23;20348;-75
2023/08/26 09:46:43;;;;;;;1.90;1.03;;;20.50;59.50;;;;;;6115355;23;20450;-75
2023/08/26 09:49:17;;;;;;;2.57;1.20;;;20.60;59.20;;;;;;6140203;23;20410;-75
2023/08/26 09:51:51;;;;;;;2.80;1.13;;;20.60;58.80;;;;;;6115552;23;20384;-76
2023/08/26 09:54:24;;;;;;;2.17;1.60;;;20.70;59.00;;;;;;6092164;23;20398;-77
2023/08/26 09:56:50;;;;;;;2.30;1.37;;;20.80;58.30;;;;;;6141823;23;20387;-76
2023/08/26 09:59:15;;;;;;;1.67;0.97;;;20.90;57.90;;;;;;6140462;23;20419;-76
2023/08/26 10:01:42;;;;;;;3.00;1.47;;;21.00;57.80;;;;;;6141854;23;20200;-73
2023/08/26 10:04:10;;;;;;;1.93;0.97;;;21.00;57.30;;;;;;6141995;23;20128;-76
2023/08/26 10:06:52;;;;;;;2.83;1.50;;;21.30;57.40;;;;;;6118854;23;20384;-75
2023/08/26 10:09:50;;;;;;;2.23;1.37;;;21.60;56.90;;;;;;6140861;23;20494;-74
2023/08/26 10:12:39;;;;;;;2.67;1.17;;;21.80;56.10;;;;;;6142504;23;20424;-76
2023/08/26 10:15:12;;;;;;;2.07;1.10;;;21.90;55.90;;;;;;6140922;23;20408;-76
2023/08/26 10:17:41;;;;;;;1.63;1.10;;;22.00;55.20;;;;;;6140842;23;20379;-74
2023/08/26 10:20:08;;;;;;;2.83;1.07;;;22.10;54.70;;;;;;6139558;23;20447;-74
2023/08/26 10:22:36;;;;;;;2.33;1.27;;;22.10;53.90;;;;;;6141223;23;20388;-76
2023/08/26 10:25:03;;;;;;;1.80;0.83;;;22.10;53.50;;;;;;6115434;23;20773;-75
2023/08/26 10:27:29;;;;;;;2.53;0.90;;;21.90;53.30;;;;;;6118125;23;20379;-75
2023/08/26 10:29:55;;;;;;;2.10;1.10;;;22.00;53.50;;;;;;6115213;23;20411;-74
2023/08/26 10:32:22;;;;;;;1.97;0.90;;;22.00;53.10;;;;;;6141835;23;20140;-76
2023/08/26 10:35:00;;;;;;;3.40;1.60;;;21.90;52.60;;;;;;6139430;23;20652;-73
2023/08/26 10:37:27;;;;;;;1.60;1.07;;;21.90;52.80;;;;;;6139757;23;20379;-76
2023/08/26 10:39:53;;;;;;;1.50;1.10;;;22.10;52.40;;;;;;6139066;23;20473;-74
2023/08/26 10:42:19;;;;;;;3.70;1.00;;;22.20;52.60;;;;;;6115815;23;20376;-77
2023/08/26 10:44:47;;;;;;;2.60;1.50;;;22.50;52.60;;;;;;6117027;23;20144;-75
2023/08/26 10:47:33;;;;;;;1.33;0.90;;;22.70;51.40;;;;;;6092887;23;20402;-75
2023/08/26 10:50:18;;;;;;;1.33;0.90;;;22.80;50.10;;;;;;6141526;23;20422;-73
2023/08/26 10:52:44;;;;;;;1.70;0.90;;;22.90;51.00;;;;;;6138512;23;20367;-75
2023/08/26 10:55:32;;;;;;;1.83;0.80;;;23.00;50.90;;;;;;6138765;23;20622;-74
2023/08/26 10:58:11;;;;;;;1.47;1.17;;;23.20;50.50;;;;;;6143328;23;20442;-76
2023/08/26 11:00:42;;;;;;;1.53;1.00;;;23.40;50.30;;;;;;6116766;23;20766;-75
2023/08/26 11:03:09;;;;;;;1.70;1.10;;;23.50;50.20;;;;;;6091066;23;20646;-77
2023/08/26 11:05:41;;;;;;;1.20;0.80;;;23.60;49.40;;;;;;6115820;23;20372;-76
2023/08/26 11:08:07;;;;;;;3.57;1.20;;;23.60;49.80;;;;;;6141333;23;20447;-79
2023/08/26 11:10:40;;;;;;;4.30;1.53;;;23.70;50.00;;;;;;6115214;23;20414;-74
2023/08/26 11:13:09;;;;;;;3.20;1.40;;;23.70;49.50;;;;;;6115046;23;20159;-74
2023/08/26 11:15:39;;;;;;;1.93;1.23;;;23.70;49.40;;;;;;6143067;23;20379;-76
2023/08/26 11:18:06;;;;;;;2.93;1.30;;;23.60;48.80;;;;;;6094405;23;20386;-77
2023/08/26 11:20:31;;;;;;;2.13;1.10;;;23.20;49.30;;;;;;6140987;23;20431;-76
2023/08/26 11:22:58;;;;;;;2.07;1.07;;;23.00;49.70;;;;;;6120122;23;20923;-74
2023/08/26 11:25:23;;;;;;;3.43;1.33;;;22.70;50.00;;;;;;6116446;23;20151;-76
2023/08/26 11:27:53;;;;;;;2.00;1.40;;;22.70;50.60;;;;;;6118951;23;20360;-78
2023/08/26 11:30:19;;;;;;;1.40;1.10;;;22.70;50.10;;;;;;6116573;23;20172;-77
2023/08/26 11:32:49;;;;;;;2.07;1.23;;;22.70;50.40;;;;;;6146172;23;20419;-75
2023/08/26 11:35:15;;;;;;;1.40;1.03;;;22.80;50.60;;;;;;6119342;23;20152;-75
2023/08/26 11:37:42;;;;;;;1.53;1.00;;;23.00;50.60;;;;;;6143819;23;20387;-76
2023/08/26 11:40:08;;;;;;;4.13;2.10;;;23.30;50.20;;;;;;6144978;23;20239;-75
2023/08/26 11:42:34;;;;;;;2.37;1.67;;;23.60;49.90;;;;;;6148667;23;20441;-78
2023/08/26 11:45:00;;;;;;;3.50;1.20;;;23.70;49.60;;;;;;6148276;23;20356;-78
2023/08/26 11:47:26;;;;;;;1.80;1.20;;;23.80;49.40;;;;;;6146071;23;20536;-78
2023/08/26 11:49:55;;;;;;;4.00;3.20;;;23.70;49.90;;;;;;6122057;23;20176;-79
2023/08/26 11:52:35;;;;;;;2.93;1.50;;;23.80;49.50;;;;;;6117817;23;20434;-76
2023/08/26 11:55:05;;;;;;;1.50;1.30;;;23.70;49.70;;;;;;6145169;23;20367;-78
2023/08/26 11:57:35;;;;;;;4.23;2.10;;;23.80;49.70;;;;;;6151086;23;20436;-79
2023/08/26 12:00:16;;;;;;;3.43;1.97;;;23.80;49.30;;;;;;6147488;23;20423;-78
2023/08/26 12:02:49;;;;;;;4.40;2.10;;;23.90;49.40;;;;;;6120301;23;20356;-77
2023/08/26 12:05:16;;;;;;;3.60;1.63;;;24.00;49.20;;;;;;6147968;23;20459;-78
2023/08/26 12:07:45;;;;;;;2.37;1.93;;;24.10;48.90;;;;;;6122979;23;20478;-78
2023/08/26 12:10:13;;;;;;;2.00;1.30;;;24.10;49.20;;;;;;6100332;23;20415;-77
2023/08/26 12:12:39;;;;;;;3.03;1.70;;;24.10;49.10;;;;;;6126901;23;20390;-78
2023/08/26 12:15:06;;;;;;;3.73;2.47;;;24.00;49.10;;;;;;6121672;23;20405;-75
2023/08/26 12:17:40;;;;;;;2.57;1.70;;;23.90;49.00;;;;;;6146738;23;20412;-77
2023/08/26 12:20:19;;;;;;;2.53;1.50;;;23.80;49.20;;;;;;6143186;23;20978;-76
2023/08/26 12:22:44;;;;;;;2.03;1.30;;;23.70;49.80;;;;;;6118376;23;20375;-78
2023/08/26 12:25:10;;;;;;;1.90;1.43;;;23.70;50.00;;;;;;6119014;23;20408;-78
2023/08/26 12:27:41;;;;;;;2.00;1.47;;;23.70;50.00;;;;;;6120421;23;20159;-76
2023/08/26 12:30:07;;;;;;;3.10;1.60;;;23.90;50.00;;;;;;6144402;23;20171;-78
2023/08/26 12:32:32;;;;;;;2.13;1.83;;;24.00;49.90;;;;;;6095319;23;20427;-77
2023/08/26 12:34:58;;;;;;;4.50;3.17;;;24.20;49.60;;;;;;6097973;23;20380;-78
2023/08/26 12:37:23;;;;;;;3.03;1.60;;;24.30;49.40;;;;;;6096337;23;20152;-76
2023/08/26 12:39:49;;;;;;;4.30;1.73;;;24.30;49.10;;;;;;6122190;23;20184;-78
2023/08/26 12:42:15;;;;;;;3.40;1.80;;;24.10;49.60;;;;;;6148515;23;20151;-77
2023/08/26 12:44:40;;;;;;;3.20;2.17;;;24.00;49.80;;;;;;6096712;23;20215;-77
2023/08/26 12:47:06;;;;;;;2.40;1.60;;;24.00;49.70;;;;;;6101749;23;20402;-79